createdAt,value
2016-11-25T00:00:14.249Z,5.3
2016-11-25T00:00:34.787Z,5.4
2016-11-25T00:00:55.367Z,5.3
2016-11-25T00:01:15.952Z,5.3
2016-11-25T00:01:36.533Z,5.4
2016-11-25T00:01:57.067Z,5.4
2016-11-25T00:02:17.620Z,5.4
2016-11-25T00:02:38.170Z,5.4
2016-11-25T00:02:58.713Z,5.4
2016-11-25T00:03:19.271Z,5.3
2016-11-25T00:03:39.807Z,5.3
2016-11-25T00:04:00.381Z,5.2
2016-11-25T00:04:20.933Z,5.3
2016-11-25T00:04:41.574Z,5.3
2016-11-25T00:05:02.144Z,5.3
2016-11-25T00:05:22.713Z,5.2
2016-11-25T00:05:43.268Z,5.3
2016-11-25T00:06:03.815Z,5.3
2016-11-25T00:06:24.358Z,5.3
2016-11-25T00:06:44.913Z,5.3
2016-11-25T00:07:05.457Z,5.3
2016-11-25T00:07:26.031Z,5.3
2016-11-25T00:07:46.577Z,5.3
2016-11-25T00:08:07.130Z,5.3
2016-11-25T00:08:27.696Z,5.3
2016-11-25T00:08:48.224Z,5.3
2016-11-25T00:09:08.776Z,5.2
2016-11-25T00:09:29.319Z,5.3
2016-11-25T00:09:49.872Z,5.3
2016-11-25T00:10:10.451Z,5.3
2016-11-25T00:10:31.012Z,5.2
2016-11-25T00:10:51.595Z,5.3
2016-11-25T00:11:12.131Z,5.3
2016-11-25T00:11:32.673Z,5.3
2016-11-25T00:11:53.241Z,5.3
2016-11-25T00:12:13.840Z,5.3
2016-11-25T00:12:34.394Z,5.4
2016-11-25T00:12:54.955Z,5.3
2016-11-25T00:13:15.495Z,5.3
2016-11-25T00:13:36.030Z,5.3
2016-11-25T00:13:56.634Z,5.2
2016-11-25T00:14:17.238Z,5.3
2016-11-25T00:14:37.796Z,5.3
2016-11-25T00:14:58.337Z,5.3
2016-11-25T00:15:18.928Z,5.3
2016-11-25T00:15:39.488Z,5.3
2016-11-25T00:16:00.051Z,5.3
2016-11-25T00:16:20.627Z,5.3
2016-11-25T00:16:41.171Z,5.3
2016-11-25T00:17:01.749Z,5.2
2016-11-25T00:17:22.310Z,5.3
2016-11-25T00:17:42.873Z,5.3
2016-11-25T00:18:03.460Z,5.3
2016-11-25T00:18:24.019Z,5.3
2016-11-25T00:18:44.567Z,5.3
2016-11-25T00:19:05.142Z,5.2
2016-11-25T00:19:25.701Z,5.3
2016-11-25T00:19:46.243Z,5.3
2016-11-25T00:20:06.838Z,5.3
2016-11-25T00:20:27.380Z,5.3
2016-11-25T00:20:47.941Z,5.3
2016-11-25T00:21:08.505Z,5.3
2016-11-25T00:21:29.080Z,5.3
2016-11-25T00:21:49.634Z,5.3
2016-11-25T00:22:10.208Z,5.3
2016-11-25T00:22:30.749Z,5.3
2016-11-25T00:22:51.302Z,5.3
2016-11-25T00:23:11.876Z,5.3
2016-11-25T00:23:32.429Z,5.3
2016-11-25T00:23:52.979Z,5.3
2016-11-25T00:24:13.545Z,5.2
2016-11-25T00:24:34.127Z,5.3
2016-11-25T00:24:54.680Z,5.3
2016-11-25T00:25:15.222Z,5.3
2016-11-25T00:25:35.779Z,5.3
2016-11-25T00:25:56.342Z,5.4
2016-11-25T00:26:16.884Z,5.4
2016-11-25T00:26:37.443Z,5.4
2016-11-25T00:26:58.002Z,5.3
2016-11-25T00:27:18.556Z,5.3
2016-11-25T00:27:39.110Z,5.3
2016-11-25T00:27:59.660Z,5.3
2016-11-25T00:28:20.243Z,5.3
2016-11-25T00:28:40.804Z,5.3
2016-11-25T00:29:01.358Z,5.3
2016-11-25T00:29:21.903Z,5.2
2016-11-25T00:29:42.453Z,5.3
2016-11-25T00:30:03.005Z,5.3
2016-11-25T00:30:23.557Z,5.3
2016-11-25T00:30:44.137Z,5.2
2016-11-25T00:31:04.679Z,5.3
2016-11-25T00:31:25.237Z,5.3
2016-11-25T00:31:45.780Z,5.3
2016-11-25T00:32:06.323Z,5.3
2016-11-25T00:32:26.869Z,5.4
2016-11-25T00:32:47.427Z,5.2
2016-11-25T00:33:08.027Z,5.3
2016-11-25T00:33:28.573Z,5.2
2016-11-25T00:33:49.128Z,5.4
2016-11-25T00:34:09.669Z,5.3
2016-11-25T00:34:30.232Z,5.3
2016-11-25T00:34:50.788Z,5.3
2016-11-25T00:35:11.358Z,5.2
2016-11-25T00:35:31.889Z,5.3
2016-11-25T00:35:52.446Z,5.3
2016-11-25T00:36:13.031Z,5.2
2016-11-25T00:36:33.569Z,5.3
2016-11-25T00:36:54.175Z,5.3
2016-11-25T00:37:14.756Z,5.3
2016-11-25T00:37:35.322Z,5.3
2016-11-25T00:37:55.896Z,5.2
2016-11-25T00:38:16.495Z,5.3
2016-11-25T00:38:37.041Z,5.3
2016-11-25T00:38:57.598Z,5.2
2016-11-25T00:39:18.159Z,5.3
2016-11-25T00:39:38.716Z,5.3
2016-11-25T00:39:59.249Z,5.3
2016-11-25T00:40:19.800Z,5.3
2016-11-25T00:40:40.358Z,5.2
2016-11-25T00:41:00.917Z,5.2
2016-11-25T00:41:21.540Z,5.3
2016-11-25T00:41:42.091Z,5.3
2016-11-25T00:42:02.639Z,5.3
2016-11-25T00:42:23.198Z,5.3
2016-11-25T00:42:43.728Z,5.2
2016-11-25T00:43:04.286Z,5.3
2016-11-25T00:43:24.834Z,5.3
2016-11-25T00:43:45.391Z,5.3
2016-11-25T00:44:05.955Z,5.2
2016-11-25T00:44:26.517Z,5.2
2016-11-25T00:44:47.087Z,5.3
2016-11-25T00:45:07.633Z,5.2
2016-11-25T00:45:28.196Z,5.2
2016-11-25T00:45:48.749Z,5.2
2016-11-25T00:46:09.288Z,5.2
2016-11-25T00:46:29.853Z,5.2
2016-11-25T00:46:50.394Z,5.2
2016-11-25T00:47:10.934Z,5.2
2016-11-25T00:47:31.472Z,5.2
2016-11-25T00:47:52.037Z,5.2
2016-11-25T00:48:12.568Z,5.2
2016-11-25T00:48:33.133Z,5.2
2016-11-25T00:48:53.673Z,5.2
2016-11-25T00:49:14.218Z,5.2
2016-11-25T00:49:34.764Z,5.2
2016-11-25T00:49:55.335Z,5.3
2016-11-25T00:50:15.894Z,5.2
2016-11-25T00:50:36.451Z,5.2
2016-11-25T00:50:57.033Z,5.2
2016-11-25T00:51:17.581Z,5.2
2016-11-25T00:51:38.126Z,5.1
2016-11-25T00:51:58.660Z,5.2
2016-11-25T00:52:19.261Z,5.2
2016-11-25T00:52:39.803Z,5.2
2016-11-25T00:53:00.380Z,5.2
2016-11-25T00:53:20.954Z,5.2
2016-11-25T00:53:41.528Z,5.2
2016-11-25T00:54:02.071Z,5.2
2016-11-25T00:54:22.620Z,5.2
2016-11-25T00:54:43.168Z,5.2
2016-11-25T00:55:03.722Z,5.2
2016-11-25T00:55:24.289Z,5.2
2016-11-25T00:55:44.849Z,5.3
2016-11-25T00:56:05.422Z,5.2
2016-11-25T00:56:25.978Z,5.3
2016-11-25T00:56:46.537Z,5.3
2016-11-25T00:57:07.096Z,5.2
2016-11-25T00:57:27.621Z,5.2
2016-11-25T00:57:48.179Z,5.2
2016-11-25T00:58:08.769Z,5.2
2016-11-25T00:58:29.339Z,5.2
2016-11-25T00:58:49.930Z,5.2
2016-11-25T00:59:10.492Z,5.3
2016-11-25T00:59:31.045Z,5.2
2016-11-25T00:59:51.589Z,5.2
2016-11-25T01:00:12.154Z,5.2
2016-11-25T01:00:32.700Z,5.2
2016-11-25T01:00:53.237Z,5.2
2016-11-25T01:01:13.774Z,5.2
2016-11-25T01:01:34.322Z,5.2
2016-11-25T01:01:54.888Z,5.2
2016-11-25T01:02:15.449Z,5.1
2016-11-25T01:02:36.015Z,5.1
2016-11-25T01:02:56.610Z,5.1
2016-11-25T01:03:17.188Z,5.2
2016-11-25T01:03:37.735Z,5.2
2016-11-25T01:03:58.289Z,5.2
2016-11-25T01:04:18.854Z,5.2
2016-11-25T01:04:39.385Z,5.2
2016-11-25T01:04:59.931Z,5.2
2016-11-25T01:05:20.487Z,5.2
2016-11-25T01:05:41.037Z,5.2
2016-11-25T01:06:01.606Z,5.2
2016-11-25T01:06:22.201Z,5.2
2016-11-25T01:06:42.738Z,5.2
2016-11-25T01:07:03.292Z,5.2
2016-11-25T01:07:23.839Z,5.2
2016-11-25T01:07:44.425Z,5.2
2016-11-25T01:08:04.972Z,5.2
2016-11-25T01:08:25.538Z,5.2
2016-11-25T01:08:46.077Z,5.1
2016-11-25T01:09:06.631Z,5.2
2016-11-25T01:09:27.184Z,5.2
2016-11-25T01:09:47.727Z,5.2
2016-11-25T01:10:08.278Z,5.2
2016-11-25T01:10:28.832Z,5.2
2016-11-25T01:10:49.387Z,5.2
2016-11-25T01:11:09.950Z,5.1
2016-11-25T01:11:30.489Z,5.2
2016-11-25T01:11:51.060Z,5.1
2016-11-25T01:12:11.679Z,5.1
2016-11-25T01:12:32.230Z,5.1
2016-11-25T01:12:52.809Z,5.1
2016-11-25T01:13:13.372Z,5.1
2016-11-25T01:13:33.935Z,5.1
2016-11-25T01:13:54.520Z,5.1
2016-11-25T01:14:15.076Z,5
2016-11-25T01:14:35.617Z,5
2016-11-25T01:14:56.158Z,5
2016-11-25T01:15:16.702Z,5.1
2016-11-25T01:15:37.266Z,5
2016-11-25T01:15:57.799Z,5
2016-11-25T01:16:18.411Z,5
2016-11-25T01:16:38.959Z,5
2016-11-25T01:16:59.537Z,5
2016-11-25T01:17:20.091Z,5
2016-11-25T01:17:40.638Z,5
2016-11-25T01:18:01.191Z,5
2016-11-25T01:18:21.736Z,5
2016-11-25T01:18:42.344Z,5
2016-11-25T01:19:02.903Z,5
2016-11-25T01:19:23.928Z,5
2016-11-25T01:19:44.516Z,5
2016-11-25T01:20:05.063Z,5
2016-11-25T01:20:25.639Z,4.9
2016-11-25T01:20:46.205Z,5
2016-11-25T01:21:06.766Z,5.1
2016-11-25T01:21:27.312Z,5
2016-11-25T01:21:47.876Z,5
2016-11-25T01:22:08.477Z,5
2016-11-25T01:22:29.032Z,4.9
2016-11-25T01:22:49.591Z,5
2016-11-25T01:23:10.156Z,5
2016-11-25T01:23:30.726Z,5
2016-11-25T01:23:51.282Z,5
2016-11-25T01:24:11.833Z,5
2016-11-25T01:24:32.376Z,5
2016-11-25T01:24:52.921Z,5.1
2016-11-25T01:25:13.446Z,5.1
2016-11-25T01:25:33.996Z,5
2016-11-25T01:25:54.584Z,5
2016-11-25T01:26:15.138Z,5.1
2016-11-25T01:26:35.668Z,5
2016-11-25T01:26:56.262Z,5
2016-11-25T01:27:16.848Z,5
2016-11-25T01:27:37.403Z,5
2016-11-25T01:27:57.964Z,5
2016-11-25T01:28:18.502Z,5.1
2016-11-25T01:28:39.083Z,5
2016-11-25T01:28:59.619Z,5
2016-11-25T01:29:20.152Z,5
2016-11-25T01:29:40.705Z,5
2016-11-25T01:30:01.266Z,5
2016-11-25T01:30:21.815Z,4.9
2016-11-25T01:30:42.362Z,5
2016-11-25T01:31:02.910Z,4.9
2016-11-25T01:31:23.480Z,4.9
2016-11-25T01:31:44.092Z,5
2016-11-25T01:32:04.654Z,4.9
2016-11-25T01:32:25.199Z,4.9
2016-11-25T01:32:45.756Z,5
2016-11-25T01:33:06.311Z,5
2016-11-25T01:33:26.900Z,5
2016-11-25T01:33:47.437Z,4.9
2016-11-25T01:34:08.006Z,5
2016-11-25T01:34:28.547Z,4.9
2016-11-25T01:34:49.093Z,4.8
2016-11-25T01:35:09.690Z,4.9
2016-11-25T01:35:30.273Z,5
2016-11-25T01:35:50.808Z,4.9
2016-11-25T01:36:11.399Z,4.9
2016-11-25T01:36:31.934Z,4.9
2016-11-25T01:36:52.473Z,4.9
2016-11-25T01:37:13.001Z,5
2016-11-25T01:37:33.572Z,4.9
2016-11-25T01:37:54.139Z,4.8
2016-11-25T01:38:14.719Z,4.9
2016-11-25T01:38:35.304Z,4.9
2016-11-25T01:38:55.859Z,4.9
2016-11-25T01:39:16.397Z,4.8
2016-11-25T01:39:36.925Z,4.8
2016-11-25T01:39:57.527Z,4.9
2016-11-25T01:40:18.079Z,4.8
2016-11-25T01:40:38.613Z,4.8
2016-11-25T01:40:59.165Z,4.8
2016-11-25T01:41:19.712Z,4.8
2016-11-25T01:41:40.276Z,4.9
2016-11-25T01:42:00.910Z,4.8
2016-11-25T01:42:21.444Z,4.9
2016-11-25T01:42:41.998Z,4.9
2016-11-25T01:43:02.561Z,4.8
2016-11-25T01:43:23.115Z,4.9
2016-11-25T01:43:43.664Z,4.8
2016-11-25T01:44:04.248Z,4.8
2016-11-25T01:44:24.787Z,4.8
2016-11-25T01:44:45.335Z,4.8
2016-11-25T01:45:05.935Z,4.9
2016-11-25T01:45:26.490Z,4.8
2016-11-25T01:45:47.045Z,4.8
2016-11-25T01:46:07.599Z,4.8
2016-11-25T01:46:28.169Z,4.8
2016-11-25T01:46:48.731Z,4.8
2016-11-25T01:47:09.295Z,4.8
2016-11-25T01:47:29.849Z,4.9
2016-11-25T01:47:50.388Z,4.8
2016-11-25T01:48:10.952Z,4.8
2016-11-25T01:48:31.538Z,4.9
2016-11-25T01:48:52.088Z,4.8
2016-11-25T01:49:12.640Z,4.8
2016-11-25T01:49:33.188Z,4.9
2016-11-25T01:49:53.729Z,4.8
2016-11-25T01:50:14.277Z,4.8
2016-11-25T01:50:34.842Z,4.8
2016-11-25T01:50:55.384Z,4.8
2016-11-25T01:51:16.010Z,4.8
2016-11-25T01:51:36.556Z,4.9
2016-11-25T01:51:57.123Z,4.8
2016-11-25T01:52:17.654Z,4.8
2016-11-25T01:52:38.205Z,4.8
2016-11-25T01:52:58.779Z,4.8
2016-11-25T01:53:19.313Z,4.9
2016-11-25T01:53:39.932Z,4.8
2016-11-25T01:54:00.470Z,4.8
2016-11-25T01:54:21.022Z,4.8
2016-11-25T01:54:41.588Z,4.8
2016-11-25T01:55:02.119Z,4.9
2016-11-25T01:55:22.683Z,4.8
2016-11-25T01:55:43.209Z,4.8
2016-11-25T01:56:03.780Z,4.8
2016-11-25T01:56:24.324Z,4.8
2016-11-25T01:56:44.883Z,4.8
2016-11-25T01:57:05.432Z,4.8
2016-11-25T01:57:25.989Z,4.9
2016-11-25T01:57:46.568Z,4.8
2016-11-25T01:58:07.138Z,4.9
2016-11-25T01:58:27.712Z,4.8
2016-11-25T01:58:48.271Z,4.8
2016-11-25T01:59:08.822Z,4.8
2016-11-25T01:59:29.412Z,4.8
2016-11-25T01:59:49.946Z,4.8
2016-11-25T02:00:10.468Z,4.8
2016-11-25T02:00:31.010Z,4.8
2016-11-25T02:00:51.546Z,4.8
2016-11-25T02:01:12.091Z,4.8
2016-11-25T02:01:32.671Z,4.8
2016-11-25T02:01:53.220Z,4.8
2016-11-25T02:02:13.765Z,4.8
2016-11-25T02:02:34.300Z,4.8
2016-11-25T02:02:54.885Z,4.9
2016-11-25T02:03:15.440Z,4.8
2016-11-25T02:03:36.020Z,4.8
2016-11-25T02:03:56.574Z,4.8
2016-11-25T02:04:17.134Z,4.8
2016-11-25T02:04:37.716Z,4.9
2016-11-25T02:04:58.282Z,4.8
2016-11-25T02:05:18.847Z,4.8
2016-11-25T02:05:39.403Z,4.8
2016-11-25T02:05:59.955Z,4.8
2016-11-25T02:06:20.527Z,4.9
2016-11-25T02:06:41.086Z,4.8
2016-11-25T02:07:01.639Z,4.9
2016-11-25T02:07:22.206Z,4.8
2016-11-25T02:07:42.782Z,4.8
2016-11-25T02:08:03.331Z,4.8
2016-11-25T02:08:23.883Z,4.8
2016-11-25T02:08:44.426Z,4.7
2016-11-25T02:09:04.963Z,4.7
2016-11-25T02:09:25.534Z,4.8
2016-11-25T02:09:46.078Z,4.7
2016-11-25T02:10:06.657Z,4.8
2016-11-25T02:10:27.201Z,4.8
2016-11-25T02:10:47.796Z,4.8
2016-11-25T02:11:08.367Z,4.8
2016-11-25T02:11:28.921Z,4.8
2016-11-25T02:11:49.470Z,4.8
2016-11-25T02:12:10.007Z,4.8
2016-11-25T02:12:30.571Z,4.8
2016-11-25T02:12:51.155Z,4.7
2016-11-25T02:13:11.709Z,4.8
2016-11-25T02:13:32.236Z,4.8
2016-11-25T02:13:52.774Z,4.8
2016-11-25T02:14:13.318Z,4.7
2016-11-25T02:14:33.887Z,4.8
2016-11-25T02:14:54.481Z,4.8
2016-11-25T02:15:15.054Z,4.8
2016-11-25T02:15:35.594Z,4.8
2016-11-25T02:15:56.140Z,4.8
2016-11-25T02:16:16.682Z,4.7
2016-11-25T02:16:37.237Z,4.8
2016-11-25T02:16:57.832Z,4.8
2016-11-25T02:17:18.377Z,4.8
2016-11-25T02:17:38.949Z,4.9
2016-11-25T02:17:59.503Z,4.8
2016-11-25T02:18:20.049Z,4.7
2016-11-25T02:18:40.607Z,4.8
2016-11-25T02:19:01.167Z,4.8
2016-11-25T02:19:21.716Z,4.8
2016-11-25T02:19:42.302Z,4.8
2016-11-25T02:20:02.844Z,4.8
2016-11-25T02:20:23.394Z,4.8
2016-11-25T02:20:43.966Z,4.8
2016-11-25T02:21:04.515Z,4.8
2016-11-25T02:21:25.078Z,4.8
2016-11-25T02:21:45.653Z,4.8
2016-11-25T02:22:06.209Z,4.8
2016-11-25T02:22:26.752Z,4.8
2016-11-25T02:22:47.337Z,4.8
2016-11-25T02:23:07.872Z,4.8
2016-11-25T02:23:28.423Z,4.8
2016-11-25T02:23:48.988Z,4.8
2016-11-25T02:24:09.562Z,4.9
2016-11-25T02:24:30.118Z,4.8
2016-11-25T02:24:50.657Z,4.8
2016-11-25T02:25:11.205Z,4.7
2016-11-25T02:25:31.754Z,4.8
2016-11-25T02:25:52.311Z,4.8
2016-11-25T02:26:12.877Z,4.8
2016-11-25T02:26:33.411Z,4.8
2016-11-25T02:26:54.010Z,4.7
2016-11-25T02:27:14.577Z,4.8
2016-11-25T02:27:35.140Z,4.8
2016-11-25T02:27:55.686Z,4.8
2016-11-25T02:28:16.228Z,4.8
2016-11-25T02:28:36.788Z,4.8
2016-11-25T02:28:57.346Z,4.8
2016-11-25T02:29:17.908Z,4.8
2016-11-25T02:29:38.464Z,4.8
2016-11-25T02:29:59.024Z,4.9
2016-11-25T02:30:19.559Z,4.7
2016-11-25T02:30:40.113Z,4.8
2016-11-25T02:31:00.674Z,4.8
2016-11-25T02:31:21.208Z,4.7
2016-11-25T02:31:41.749Z,4.9
2016-11-25T02:32:02.318Z,4.8
2016-11-25T02:32:22.876Z,4.8
2016-11-25T02:32:43.468Z,4.8
2016-11-25T02:33:04.020Z,4.8
2016-11-25T02:33:24.566Z,4.8
2016-11-25T02:33:45.130Z,4.8
2016-11-25T02:34:05.665Z,4.7
2016-11-25T02:34:26.244Z,4.8
2016-11-25T02:34:46.811Z,4.8
2016-11-25T02:35:07.385Z,4.8
2016-11-25T02:35:27.960Z,4.8
2016-11-25T02:35:48.511Z,4.8
2016-11-25T02:36:09.047Z,4.8
2016-11-25T02:36:29.604Z,4.8
2016-11-25T02:36:50.193Z,4.8
2016-11-25T02:37:10.748Z,4.8
2016-11-25T02:37:31.292Z,4.7
2016-11-25T02:37:51.836Z,4.7
2016-11-25T02:38:12.386Z,4.7
2016-11-25T02:38:32.942Z,4.8
2016-11-25T02:38:53.550Z,4.8
2016-11-25T02:39:14.092Z,4.8
2016-11-25T02:39:34.647Z,4.8
2016-11-25T02:39:55.201Z,4.8
2016-11-25T02:40:15.743Z,4.8
2016-11-25T02:40:36.301Z,4.8
2016-11-25T02:40:56.883Z,4.8
2016-11-25T02:41:17.442Z,4.8
2016-11-25T02:48:32.072Z,4.6
2016-11-25T02:48:52.631Z,4.6
2016-11-25T02:49:13.211Z,4.7
2016-11-25T02:49:33.782Z,4.7
2016-11-25T02:49:54.334Z,4.7
2016-11-25T02:50:14.886Z,4.6
2016-11-25T02:50:35.428Z,4.7
2016-11-25T02:50:55.959Z,4.7
2016-11-25T02:51:16.495Z,4.7
2016-11-25T02:51:37.063Z,4.7
2016-11-25T02:51:57.617Z,4.7
2016-11-25T02:52:18.166Z,4.6
2016-11-25T02:52:38.712Z,4.6
2016-11-25T02:52:59.273Z,4.6
2016-11-25T02:53:19.825Z,4.7
2016-11-25T02:53:40.378Z,4.6
2016-11-25T02:54:00.924Z,4.7
2016-11-25T02:54:21.470Z,4.7
2016-11-25T02:54:42.053Z,4.6
2016-11-25T02:55:02.609Z,4.6
2016-11-25T02:55:23.171Z,4.7
2016-11-25T02:55:43.703Z,4.6
2016-11-25T02:56:04.290Z,4.7
2016-11-25T02:56:24.839Z,4.7
2016-11-25T02:56:45.445Z,4.7
2016-11-25T02:57:06.069Z,4.7
2016-11-25T02:57:26.638Z,4.7
2016-11-25T02:57:47.174Z,4.5
2016-11-25T02:58:07.715Z,4.6
2016-11-25T02:58:28.257Z,4.6
2016-11-25T02:58:48.802Z,4.6
2016-11-25T02:59:09.341Z,4.5
2016-11-25T02:59:29.902Z,4.6
2016-11-25T02:59:50.426Z,4.6
2016-11-25T03:00:10.959Z,4.5
2016-11-25T03:00:31.508Z,4.5
2016-11-25T03:00:52.049Z,4.6
2016-11-25T03:01:12.644Z,4.5
2016-11-25T03:01:33.219Z,4.6
2016-11-25T03:01:53.757Z,4.6
2016-11-25T03:02:14.298Z,4.6
2016-11-25T03:02:34.857Z,4.6
2016-11-25T03:02:55.438Z,4.5
2016-11-25T03:03:16.014Z,4.6
2016-11-25T03:03:36.543Z,4.6
2016-11-25T03:03:57.082Z,4.6
2016-11-25T03:04:17.669Z,4.6
2016-11-25T03:04:38.207Z,4.6
2016-11-25T03:04:58.736Z,4.5
2016-11-25T03:05:19.292Z,4.6
2016-11-25T03:05:39.843Z,4.6
2016-11-25T03:06:00.424Z,4.6
2016-11-25T03:06:20.973Z,4.5
2016-11-25T03:06:41.531Z,4.5
2016-11-25T03:07:02.072Z,4.6
2016-11-25T03:07:22.658Z,4.5
2016-11-25T03:07:43.239Z,4.5
2016-11-25T03:08:03.805Z,4.5
2016-11-25T03:08:24.384Z,4.5
2016-11-25T03:08:44.944Z,4.6
2016-11-25T03:09:05.525Z,4.5
2016-11-25T03:09:26.083Z,4.5
2016-11-25T03:09:46.636Z,4.6
2016-11-25T03:10:07.174Z,4.5
2016-11-25T03:10:27.718Z,4.6
2016-11-25T03:10:48.274Z,4.6
2016-11-25T03:11:08.815Z,4.5
2016-11-25T03:11:29.344Z,4.6
2016-11-25T03:11:49.898Z,4.5
2016-11-25T03:12:10.528Z,4.5
2016-11-25T03:12:31.068Z,4.5
2016-11-25T03:12:51.616Z,4.5
2016-11-25T03:13:12.157Z,4.5
2016-11-25T03:13:32.706Z,4.5
2016-11-25T03:13:53.257Z,4.5
2016-11-25T03:14:13.820Z,4.4
2016-11-25T03:14:34.365Z,4.5
2016-11-25T03:14:54.915Z,4.5
2016-11-25T03:15:15.498Z,4.5
2016-11-25T03:15:36.060Z,4.5
2016-11-25T03:15:56.602Z,4.5
2016-11-25T03:16:17.177Z,4.5
2016-11-25T03:16:37.751Z,4.5
2016-11-25T03:16:58.300Z,4.4
2016-11-25T03:17:18.830Z,4.5
2016-11-25T03:17:39.379Z,4.4
2016-11-25T03:17:59.964Z,4.5
2016-11-25T03:18:20.509Z,4.5
2016-11-25T03:18:41.033Z,4.5
2016-11-25T03:19:01.588Z,4.5
2016-11-25T03:19:22.104Z,4.5
2016-11-25T03:19:42.652Z,4.5
2016-11-25T03:20:03.231Z,4.5
2016-11-25T03:20:23.813Z,4.5
2016-11-25T03:20:44.373Z,4.5
2016-11-25T03:21:04.925Z,4.5
2016-11-25T03:21:25.478Z,4.4
2016-11-25T03:21:46.106Z,4.4
2016-11-25T03:22:06.641Z,4.4
2016-11-25T03:22:27.182Z,4.5
2016-11-25T03:22:47.734Z,4.4
2016-11-25T03:23:08.315Z,4.5
2016-11-25T03:23:28.905Z,4.5
2016-11-25T03:23:49.493Z,4.5
2016-11-25T03:24:10.042Z,4.5
2016-11-25T03:24:30.585Z,4.4
2016-11-25T03:24:51.140Z,4.5
2016-11-25T03:25:11.713Z,4.5
2016-11-25T03:25:32.270Z,4.5
2016-11-25T03:25:52.835Z,4.5
2016-11-25T03:26:13.384Z,4.5
2016-11-25T03:26:33.919Z,4.5
2016-11-25T03:26:54.464Z,4.5
2016-11-25T03:27:15.054Z,4.5
2016-11-25T03:27:35.614Z,4.5
2016-11-25T03:27:56.182Z,4.5
2016-11-25T03:28:16.714Z,4.5
2016-11-25T03:28:37.259Z,4.5
2016-11-25T03:28:57.802Z,4.3
2016-11-25T03:29:18.367Z,4.4
2016-11-25T03:29:38.981Z,4.3
2016-11-25T03:29:59.533Z,4.4
2016-11-25T03:30:20.089Z,4.4
2016-11-25T03:30:40.651Z,4.4
2016-11-25T03:31:01.228Z,4.4
2016-11-25T03:31:21.788Z,4.4
2016-11-25T03:31:42.342Z,4.4
2016-11-25T03:32:02.899Z,4.4
2016-11-25T03:32:23.460Z,4.5
2016-11-25T03:32:44.036Z,4.4
2016-11-25T03:33:04.576Z,4.5
2016-11-25T03:33:25.119Z,4.4
2016-11-25T03:33:45.651Z,4.5
2016-11-25T03:34:06.179Z,4.4
2016-11-25T03:34:26.783Z,4.4
2016-11-25T03:34:47.333Z,4.5
2016-11-25T03:35:07.880Z,4.4
2016-11-25T03:35:28.426Z,4.4
2016-11-25T03:35:48.959Z,4.4
2016-11-25T03:36:09.507Z,4.3
2016-11-25T03:36:30.053Z,4.4
2016-11-25T03:36:50.613Z,4.3
2016-11-25T03:37:11.164Z,4.4
2016-11-25T03:37:31.705Z,4.3
2016-11-25T03:37:52.281Z,4.3
2016-11-25T03:38:12.836Z,4.4
2016-11-25T03:38:33.392Z,4.3
2016-11-25T03:38:53.954Z,4.3
2016-11-25T03:39:14.515Z,4.3
2016-11-25T03:39:35.056Z,4.4
2016-11-25T03:39:55.634Z,4.3
2016-11-25T03:40:16.178Z,4.4
2016-11-25T03:40:36.718Z,4.4
2016-11-25T03:40:57.276Z,4.3
2016-11-25T03:41:17.818Z,4.4
2016-11-25T03:41:38.367Z,4.4
2016-11-25T03:41:58.922Z,4.4
2016-11-25T03:42:19.493Z,4.3
2016-11-25T03:42:40.035Z,4.3
2016-11-25T03:43:00.594Z,4.4
2016-11-25T03:43:21.164Z,4.4
2016-11-25T03:43:41.723Z,4.4
2016-11-25T03:44:02.274Z,4.3
2016-11-25T03:44:22.832Z,4.4
2016-11-25T03:44:43.383Z,4.4
2016-11-25T03:45:03.934Z,4.4
2016-11-25T03:45:24.475Z,4.4
2016-11-25T03:45:45.016Z,4.4
2016-11-25T03:46:05.596Z,4.4
2016-11-25T03:46:26.152Z,4.3
2016-11-25T03:46:46.719Z,4.4
2016-11-25T03:47:07.264Z,4.4
2016-11-25T03:47:27.854Z,4.3
2016-11-25T03:47:48.480Z,4.4
2016-11-25T03:48:09.007Z,4.4
2016-11-25T03:48:29.552Z,4.3
2016-11-25T03:48:50.133Z,4.3
2016-11-25T03:49:10.679Z,4.4
2016-11-25T03:49:31.224Z,4.3
2016-11-25T03:49:51.776Z,4.3
2016-11-25T03:50:12.325Z,4.3
2016-11-25T03:50:32.854Z,4.3
2016-11-25T03:50:53.449Z,4.3
2016-11-25T03:51:13.980Z,4.2
2016-11-25T03:51:34.536Z,4.2
2016-11-25T03:51:55.089Z,4.3
2016-11-25T03:52:15.638Z,4.3
2016-11-25T03:52:36.240Z,4.2
2016-11-25T03:52:56.808Z,4.2
2016-11-25T03:53:17.381Z,4.2
2016-11-25T03:53:37.935Z,4.1
2016-11-25T03:53:58.496Z,4.2
2016-11-25T03:54:19.053Z,4.2
2016-11-25T03:54:39.607Z,4.2
2016-11-25T03:55:00.161Z,4.2
2016-11-25T03:55:20.709Z,4.2
2016-11-25T03:55:41.256Z,4.2
2016-11-25T03:56:01.798Z,4.2
2016-11-25T03:56:22.393Z,4.2
2016-11-25T03:56:42.935Z,4.1
2016-11-25T03:57:03.479Z,4.1
2016-11-25T03:57:24.035Z,4.1
2016-11-25T03:57:44.570Z,4
2016-11-25T03:58:05.126Z,4.1
2016-11-25T03:58:25.657Z,4.1
2016-11-25T03:58:46.243Z,4
2016-11-25T03:59:06.819Z,4
2016-11-25T03:59:27.440Z,4.1
2016-11-25T03:59:47.993Z,4
2016-11-25T04:00:08.536Z,4
2016-11-25T04:00:29.109Z,3.8
2016-11-25T04:00:49.684Z,3.8
2016-11-25T04:01:10.240Z,3.9
2016-11-25T04:01:30.786Z,3.8
2016-11-25T04:01:51.396Z,3.8
2016-11-25T04:02:12.033Z,3.8
2016-11-25T04:02:32.585Z,3.8
2016-11-25T04:02:53.124Z,3.8
2016-11-25T04:03:13.686Z,3.8
2016-11-25T04:03:34.240Z,3.8
2016-11-25T04:03:54.778Z,3.9
2016-11-25T04:04:15.313Z,3.7
2016-11-25T04:04:35.874Z,3.9
2016-11-25T04:04:56.455Z,3.9
2016-11-25T04:05:17.005Z,3.8
2016-11-25T04:05:37.551Z,3.8
2016-11-25T04:05:58.103Z,3.8
2016-11-25T04:06:18.636Z,3.7
2016-11-25T04:06:39.196Z,3.8
2016-11-25T04:06:59.786Z,3.7
2016-11-25T04:07:20.348Z,3.7
2016-11-25T04:07:40.914Z,3.8
2016-11-25T04:08:01.495Z,3.7
2016-11-25T04:08:22.047Z,3.8
2016-11-25T04:08:42.595Z,3.8
2016-11-25T04:09:03.171Z,3.8
2016-11-25T04:09:23.764Z,3.7
2016-11-25T04:09:44.317Z,3.6
2016-11-25T04:10:04.872Z,3.7
2016-11-25T04:10:25.433Z,3.6
2016-11-25T04:10:45.987Z,3.7
2016-11-25T04:11:06.566Z,3.7
2016-11-25T04:11:28.358Z,3.7
2016-11-25T04:11:49.933Z,3.7
2016-11-25T04:12:12.019Z,3.7
2016-11-25T04:12:32.613Z,3.6
2016-11-25T04:12:53.340Z,3.7
2016-11-25T04:13:19.349Z,3.6
2016-11-25T04:14:04.725Z,3.6
2016-11-25T04:14:54.384Z,3.6
2016-11-25T04:15:37.310Z,3.6
2016-11-25T04:16:24.938Z,3.6
2016-11-25T04:17:12.373Z,3.6
2016-11-25T04:17:49.934Z,3.6
2016-11-25T04:18:28.729Z,3.7
2016-11-25T04:19:16.984Z,3.6
2016-11-25T04:20:14.409Z,3.7
2016-11-25T04:21:05.248Z,3.7
2016-11-25T04:21:51.877Z,3.7
2016-11-25T04:22:44.137Z,3.7
2016-11-25T04:23:35.502Z,3.7
2016-11-25T04:24:28.309Z,3.8
2016-11-25T04:25:21.932Z,3.7
2016-11-25T04:25:58.408Z,3.7
2016-11-25T04:26:18.970Z,3.7
2016-11-25T04:26:39.662Z,3.6
2016-11-25T04:27:00.215Z,3.6
2016-11-25T04:27:20.775Z,3.7
2016-11-25T04:27:41.303Z,3.6
2016-11-25T04:28:01.851Z,3.7
2016-11-25T04:28:22.409Z,3.6
2016-11-25T04:28:42.948Z,3.5
2016-11-25T04:29:03.478Z,3.5
2016-11-25T04:29:24.912Z,3.5
2016-11-25T04:29:45.462Z,3.5
2016-11-25T04:30:06.015Z,3.5
2016-11-25T04:30:26.564Z,3.5
2016-11-25T04:30:47.118Z,3.5
2016-11-25T04:31:07.637Z,3.4
2016-11-25T04:31:28.191Z,3.4
2016-11-25T04:31:48.721Z,3.4
2016-11-25T04:32:09.264Z,3.4
2016-11-25T04:32:29.805Z,3.5
2016-11-25T04:32:50.351Z,3.4
2016-11-25T04:33:11.443Z,3.4
2016-11-25T04:33:32.171Z,3.4
2016-11-25T04:33:52.729Z,3.4
2016-11-25T04:34:13.380Z,3.4
2016-11-25T04:34:33.952Z,3.4
2016-11-25T04:34:54.509Z,3.5
2016-11-25T04:35:15.060Z,3.4
2016-11-25T04:35:35.645Z,3.4
2016-11-25T04:35:56.214Z,3.4
2016-11-25T04:36:17.055Z,3.4
2016-11-25T04:36:37.617Z,3.4
2016-11-25T04:36:58.177Z,3.4
2016-11-25T04:37:18.723Z,3.4
2016-11-25T04:37:39.268Z,3.4
2016-11-25T04:37:59.814Z,3.4
2016-11-25T04:38:20.378Z,3.4
2016-11-25T04:38:40.952Z,3.5
2016-11-25T04:39:01.527Z,3.5
2016-11-25T04:39:23.140Z,3.5
2016-11-25T04:39:43.700Z,3.5
2016-11-25T04:40:04.833Z,3.5
2016-11-25T04:40:25.400Z,3.5
2016-11-25T04:40:45.934Z,3.6
2016-11-25T04:41:06.477Z,3.6
2016-11-25T04:41:27.054Z,3.6
2016-11-25T04:41:47.638Z,3.6
2016-11-25T04:42:08.186Z,3.6
2016-11-25T04:42:28.726Z,3.5
2016-11-25T04:42:49.264Z,3.7
2016-11-25T04:43:09.818Z,3.8
2016-11-25T04:43:30.383Z,3.7
2016-11-25T04:43:50.956Z,3.7
2016-11-25T04:44:11.563Z,3.7
2016-11-25T04:44:32.150Z,3.7
2016-11-25T04:44:52.717Z,3.6
2016-11-25T04:45:13.285Z,3.7
2016-11-25T04:45:33.823Z,3.7
2016-11-25T04:45:54.366Z,3.6
2016-11-25T04:46:14.932Z,3.7
2016-11-25T04:46:35.518Z,3.6
2016-11-25T04:46:56.075Z,3.7
2016-11-25T04:47:16.631Z,3.6
2016-11-25T04:47:37.166Z,3.6
2016-11-25T04:47:57.753Z,3.7
2016-11-25T04:48:18.289Z,3.6
2016-11-25T04:48:38.863Z,3.7
2016-11-25T04:48:59.421Z,3.7
2016-11-25T04:49:19.993Z,3.6
2016-11-25T04:49:40.542Z,3.6
2016-11-25T04:50:01.086Z,3.7
2016-11-25T04:50:21.637Z,3.7
2016-11-25T04:50:42.198Z,3.7
2016-11-25T04:51:02.735Z,3.7
2016-11-25T04:51:23.277Z,3.6
2016-11-25T04:51:43.817Z,3.6
2016-11-25T04:52:04.398Z,3.6
2016-11-25T04:52:24.965Z,3.6
2016-11-25T04:52:45.510Z,3.7
2016-11-25T04:53:06.095Z,3.7
2016-11-25T04:53:26.652Z,3.7
2016-11-25T04:53:47.225Z,3.7
2016-11-25T04:54:07.783Z,3.7
2016-11-25T04:54:28.331Z,3.6
2016-11-25T04:54:48.905Z,3.6
2016-11-25T04:55:09.459Z,3.6
2016-11-25T04:55:30.000Z,3.7
2016-11-25T04:55:50.585Z,3.7
2016-11-25T04:56:11.137Z,3.7
2016-11-25T04:56:31.674Z,3.6
2016-11-25T04:56:52.279Z,3.6
2016-11-25T04:57:12.858Z,3.6
2016-11-25T04:57:33.442Z,3.6
2016-11-25T04:57:53.981Z,3.6
2016-11-25T04:58:14.576Z,3.5
2016-11-25T04:58:35.122Z,3.6